createdAt,value
2022-09-22T04:00:32.259Z,0.00
2022-09-22T04:01:32.245Z,0.00
2022-09-22T04:02:32.221Z,0.00
2022-09-22T04:03:32.172Z,0.00
2022-09-22T04:04:32.173Z,0.00
2022-09-22T04:05:32.147Z,0.00
2022-09-22T04:06:32.135Z,0.00
2022-09-22T04:07:32.122Z,0.00
2022-09-22T04:08:32.113Z,0.00
2022-09-22T04:09:32.121Z,0.00
2022-09-22T04:10:32.094Z,0.00
2022-09-22T04:11:37.111Z,0.00
2022-09-22T04:12:32.069Z,0.00
2022-09-22T04:13:32.054Z,0.00
2022-09-22T04:14:32.074Z,0.00
2022-09-22T04:15:32.049Z,0.00
2022-09-22T04:16:32.096Z,0.00
2022-09-22T04:17:32.010Z,0.00
2022-09-22T04:18:31.998Z,0.00
2022-09-22T04:19:31.995Z,0.00
2022-09-22T04:20:31.987Z,0.00
2022-09-22T04:21:31.964Z,0.00
2022-09-22T04:22:36.984Z,0.00
2022-09-22T04:23:31.942Z,0.00
2022-09-22T04:24:31.941Z,0.00
2022-09-22T04:25:31.925Z,0.00
2022-09-22T04:26:31.923Z,0.00
2022-09-22T04:27:31.896Z,0.00
2022-09-22T04:28:31.887Z,0.00
2022-09-22T04:29:31.883Z,0.00
2022-09-22T04:30:31.925Z,0.00
2022-09-22T04:31:31.852Z,0.00
2022-09-22T04:32:31.862Z,0.00
2022-09-22T04:33:36.853Z,0.00
2022-09-22T04:34:31.838Z,0.00
2022-09-22T04:35:31.809Z,0.00
2022-09-22T04:36:31.795Z,0.00
2022-09-22T04:37:31.789Z,0.00
2022-09-22T04:38:31.780Z,0.00
2022-09-22T04:39:31.772Z,0.00
2022-09-22T04:40:31.801Z,0.00
2022-09-22T04:41:31.737Z,0.00
2022-09-22T04:42:31.837Z,0.00
2022-09-22T04:43:31.716Z,0.00
2022-09-22T04:44:36.791Z,0.00
2022-09-22T04:45:34.955Z,0.00
2022-09-22T04:46:32.802Z,0.00
2022-09-22T04:47:31.686Z,0.00
2022-09-22T04:48:31.678Z,0.00
2022-09-22T04:49:31.665Z,0.00
2022-09-22T04:50:31.636Z,0.00
2022-09-22T04:51:31.630Z,0.00
2022-09-22T04:52:31.614Z,0.00
2022-09-22T04:53:31.625Z,0.00
2022-09-22T04:54:31.599Z,0.00
2022-09-22T04:55:36.608Z,0.00
2022-09-22T04:56:31.570Z,0.00
2022-09-22T04:57:31.555Z,0.00
2022-09-22T04:58:31.546Z,0.00
2022-09-22T04:59:31.551Z,0.00
2022-09-22T05:00:31.529Z,0.00
2022-09-22T05:01:31.558Z,0.00
2022-09-22T05:02:31.507Z,0.00
2022-09-22T05:03:31.518Z,0.00
2022-09-22T05:04:31.546Z,0.00
2022-09-22T05:05:31.475Z,0.00
2022-09-22T05:06:36.486Z,0.00
2022-09-22T05:07:31.442Z,0.00
2022-09-22T05:08:31.434Z,0.00
2022-09-22T05:09:31.437Z,0.00
2022-09-22T05:10:31.411Z,0.00
2022-09-22T05:11:31.395Z,0.00
2022-09-22T05:12:31.386Z,0.00
2022-09-22T05:13:31.375Z,0.00
2022-09-22T05:14:31.384Z,0.00
2022-09-22T05:15:31.361Z,0.00
2022-09-22T05:16:31.438Z,0.00
2022-09-22T05:17:36.349Z,0.00
2022-09-22T05:18:31.353Z,0.00
2022-09-22T05:19:31.305Z,0.00
2022-09-22T05:20:31.374Z,0.00
2022-09-22T05:21:31.283Z,0.00
2022-09-22T05:22:31.274Z,5.62
2022-09-22T05:23:31.264Z,5.62
2022-09-22T05:24:31.355Z,5.62
2022-09-22T05:25:31.251Z,5.62
2022-09-22T05:26:31.228Z,5.62
2022-09-22T05:27:31.215Z,5.62
2022-09-22T05:28:36.228Z,5.62
2022-09-22T05:29:31.206Z,5.62
2022-09-22T05:30:31.186Z,5.62
2022-09-22T05:31:31.257Z,5.62
2022-09-22T05:32:31.162Z,11.25
2022-09-22T05:33:31.149Z,11.25
2022-09-22T05:34:37.331Z,11.25
2022-09-22T05:35:35.949Z,11.25
2022-09-22T05:36:32.132Z,11.25
2022-09-22T05:37:31.102Z,11.25
2022-09-22T05:38:31.090Z,11.25
2022-09-22T05:39:36.109Z,11.25
2022-09-22T05:40:31.166Z,16.88
2022-09-22T05:41:31.057Z,16.88
2022-09-22T05:42:31.051Z,16.88
2022-09-22T05:43:31.032Z,16.88
2022-09-22T05:44:31.024Z,16.88
2022-09-22T05:45:31.108Z,16.88
2022-09-22T05:46:31.005Z,16.88
2022-09-22T05:47:30.987Z,16.88
2022-09-22T05:48:31.658Z,16.88
2022-09-22T05:49:30.965Z,22.50
2022-09-22T05:50:36.367Z,22.50
2022-09-22T05:51:30.942Z,22.50
2022-09-22T05:52:30.963Z,22.50
2022-09-22T05:53:30.925Z,22.50
2022-09-22T05:54:30.912Z,22.50
2022-09-22T05:55:30.911Z,22.50
2022-09-22T05:56:30.887Z,22.50
2022-09-22T05:57:30.881Z,22.50
2022-09-22T05:58:30.869Z,22.50
2022-09-22T05:59:31.034Z,22.50
2022-09-22T06:00:30.892Z,28.12
2022-09-22T06:01:35.851Z,28.12
2022-09-22T06:02:30.872Z,28.12
2022-09-22T06:03:30.815Z,28.12
2022-09-22T06:04:30.798Z,28.12
2022-09-22T06:05:30.801Z,28.12
2022-09-22T06:06:30.774Z,28.12
2022-09-22T06:07:30.844Z,28.12
2022-09-22T06:08:30.870Z,28.12
2022-09-22T06:09:30.739Z,28.12
2022-09-22T06:10:30.744Z,28.12
2022-09-22T06:11:30.727Z,28.12
2022-09-22T06:12:35.728Z,28.12
2022-09-22T06:13:30.695Z,28.12
2022-09-22T06:14:30.686Z,28.12
2022-09-22T06:15:30.684Z,28.12
2022-09-22T06:16:30.856Z,28.12
2022-09-22T06:17:30.652Z,28.12
2022-09-22T06:18:30.655Z,28.12
2022-09-22T06:19:30.627Z,28.12
2022-09-22T06:20:30.627Z,28.12
2022-09-22T06:21:30.604Z,28.12
2022-09-22T06:22:30.778Z,28.12
2022-09-22T06:23:39.364Z,33.75
2022-09-22T06:24:31.586Z,33.75
2022-09-22T06:25:30.573Z,33.75
2022-09-22T06:26:30.565Z,33.75
2022-09-22T06:27:30.537Z,33.75
2022-09-22T06:28:30.530Z,33.75
2022-09-22T06:29:30.515Z,33.75
2022-09-22T06:30:30.527Z,33.75
2022-09-22T06:31:30.508Z,33.75
2022-09-22T06:32:30.503Z,33.75
2022-09-22T06:33:30.518Z,33.75
2022-09-22T06:34:35.484Z,33.75
2022-09-22T06:35:30.459Z,33.75
2022-09-22T06:36:30.447Z,33.75
2022-09-22T06:37:30.428Z,33.75
2022-09-22T06:38:30.417Z,39.38
2022-09-22T06:39:30.423Z,39.38
2022-09-22T06:40:30.477Z,39.38
2022-09-22T06:41:30.383Z,39.38
2022-09-22T06:42:30.393Z,39.38
2022-09-22T06:43:30.357Z,39.38
2022-09-22T06:44:30.345Z,39.38
2022-09-22T06:45:35.508Z,39.38
2022-09-22T06:46:30.325Z,39.38
2022-09-22T06:47:30.313Z,39.38
2022-09-22T06:48:30.304Z,39.38
2022-09-22T06:49:30.291Z,39.38
2022-09-22T06:50:30.764Z,39.38
2022-09-22T06:51:30.351Z,39.38
2022-09-22T06:52:30.255Z,39.38
2022-09-22T06:53:30.262Z,39.38
2022-09-22T06:54:30.232Z,45.00
2022-09-22T06:55:30.253Z,45.00
2022-09-22T06:56:37.004Z,45.00
2022-09-22T06:57:30.202Z,45.00
2022-09-22T06:58:38.607Z,45.00
2022-09-22T06:59:31.177Z,45.00
2022-09-22T07:00:30.320Z,45.00
2022-09-22T07:01:30.528Z,45.00
2022-09-22T07:02:30.150Z,45.00
2022-09-22T07:03:30.137Z,45.00
2022-09-22T07:04:30.122Z,45.00
2022-09-22T07:05:30.120Z,45.00
2022-09-22T07:06:30.095Z,45.00
2022-09-22T07:07:35.111Z,50.62
2022-09-22T07:08:30.073Z,50.62
2022-09-22T07:09:30.062Z,50.62
2022-09-22T07:10:30.063Z,50.62
2022-09-22T07:11:30.119Z,50.62
2022-09-22T07:12:30.028Z,50.62
2022-09-22T07:13:30.019Z,50.62
2022-09-22T07:14:30.007Z,50.62
2022-09-22T07:15:30.003Z,50.62
2022-09-22T07:16:30.090Z,50.62
2022-09-22T07:17:30.006Z,50.62
2022-09-22T07:18:34.983Z,50.62
2022-09-22T07:19:29.948Z,50.62
2022-09-22T07:20:29.957Z,50.62
2022-09-22T07:21:29.940Z,50.62
2022-09-22T07:22:29.922Z,50.62
2022-09-22T07:23:29.904Z,50.62
2022-09-22T07:24:29.903Z,50.62
2022-09-22T07:25:29.881Z,50.62
2022-09-22T07:26:29.896Z,50.62
2022-09-22T07:27:29.888Z,50.62
2022-09-22T07:28:29.845Z,50.62
2022-09-22T07:29:34.861Z,50.62
2022-09-22T07:30:29.824Z,50.62
2022-09-22T07:31:29.881Z,50.62
2022-09-22T07:32:29.799Z,50.62
2022-09-22T07:33:29.796Z,56.25
2022-09-22T07:34:29.775Z,56.25
2022-09-22T07:35:29.766Z,56.25
2022-09-22T07:36:29.770Z,56.25
2022-09-22T07:37:29.758Z,56.25
2022-09-22T07:38:29.733Z,56.25
2022-09-22T07:39:29.721Z,61.88
2022-09-22T07:40:34.777Z,67.50
2022-09-22T07:41:29.700Z,78.75
2022-09-22T07:42:29.703Z,95.62
2022-09-22T07:43:29.695Z,112.50
2022-09-22T07:44:29.666Z,151.88
2022-09-22T07:45:29.651Z,191.25
2022-09-22T07:46:29.709Z,163.12
2022-09-22T07:47:29.630Z,123.75
2022-09-22T07:48:29.619Z,112.50
2022-09-22T07:49:29.651Z,101.25
2022-09-22T07:50:29.720Z,112.50
2022-09-22T07:51:34.634Z,112.50
2022-09-22T07:52:29.572Z,112.50
2022-09-22T07:53:29.588Z,112.50
2022-09-22T07:54:29.549Z,90.00
2022-09-22T07:55:29.701Z,95.62
2022-09-22T07:56:29.540Z,101.25
2022-09-22T07:57:29.525Z,112.50
2022-09-22T07:58:29.506Z,129.38
2022-09-22T07:59:29.536Z,163.12
2022-09-22T08:00:29.596Z,219.38
2022-09-22T08:01:29.509Z,219.38
2022-09-22T08:02:34.538Z,174.38
2022-09-22T08:03:29.449Z,123.75
2022-09-22T08:04:29.441Z,95.62
2022-09-22T08:05:29.447Z,95.62
2022-09-22T08:06:29.425Z,84.38
2022-09-22T08:07:29.406Z,78.75
2022-09-22T08:08:29.391Z,73.12
2022-09-22T08:09:29.383Z,84.38
2022-09-22T08:10:29.379Z,101.25
2022-09-22T08:11:29.368Z,101.25
2022-09-22T08:12:29.345Z,90.00
2022-09-22T08:13:34.376Z,78.75
2022-09-22T08:14:29.338Z,78.75
2022-09-22T08:15:29.336Z,78.75
2022-09-22T08:16:29.340Z,78.75
2022-09-22T08:17:29.302Z,73.12
2022-09-22T08:18:29.289Z,78.75
2022-09-22T08:19:29.272Z,78.75
2022-09-22T08:20:29.387Z,78.75
2022-09-22T08:21:29.260Z,73.12
2022-09-22T08:22:29.254Z,73.12
2022-09-22T08:23:29.237Z,73.12
2022-09-22T08:24:34.234Z,78.75
2022-09-22T08:25:29.204Z,84.38
2022-09-22T08:26:29.229Z,101.25
2022-09-22T08:27:29.187Z,129.38
2022-09-22T08:28:29.167Z,157.50
2022-09-22T08:29:29.157Z,219.38
2022-09-22T08:30:29.144Z,270.00
2022-09-22T08:31:29.235Z,213.75
2022-09-22T08:32:29.143Z,118.12
2022-09-22T08:33:29.115Z,84.38
2022-09-22T08:34:29.137Z,84.38
2022-09-22T08:35:34.139Z,84.38
2022-09-22T08:36:29.075Z,78.75
2022-09-22T08:37:29.083Z,78.75
2022-09-22T08:38:29.114Z,84.38
2022-09-22T08:39:29.046Z,84.38
2022-09-22T08:40:29.127Z,90.00
2022-09-22T08:41:29.033Z,90.00
2022-09-22T08:42:29.052Z,106.88
2022-09-22T08:43:29.012Z,118.12
2022-09-22T08:44:28.984Z,112.50
2022-09-22T08:45:28.975Z,112.50
2022-09-22T08:46:34.351Z,106.88
2022-09-22T08:47:29.100Z,106.88
2022-09-22T08:48:28.951Z,123.75
2022-09-22T08:49:28.930Z,135.00
2022-09-22T08:50:28.915Z,112.50
2022-09-22T08:51:28.907Z,112.50
2022-09-22T08:52:28.905Z,106.88
2022-09-22T08:53:28.885Z,101.25
2022-09-22T08:54:28.874Z,101.25
2022-09-22T08:55:28.868Z,90.00
2022-09-22T08:56:28.849Z,90.00
2022-09-22T08:57:33.869Z,84.38
2022-09-22T08:58:28.825Z,84.38
2022-09-22T08:59:28.824Z,84.38
2022-09-22T09:00:28.947Z,84.38
2022-09-22T09:01:28.904Z,78.75
2022-09-22T09:02:28.857Z,78.75
2022-09-22T09:03:28.781Z,78.75
2022-09-22T09:04:28.791Z,84.38
2022-09-22T09:05:28.755Z,84.38
2022-09-22T09:06:28.879Z,90.00
2022-09-22T09:07:28.811Z,84.38
2022-09-22T09:08:33.747Z,84.38
2022-09-22T09:09:28.709Z,78.75
2022-09-22T09:10:28.748Z,78.75
2022-09-22T09:11:28.692Z,78.75
2022-09-22T09:12:28.671Z,84.38
2022-09-22T09:13:28.848Z,84.38
2022-09-22T09:14:28.644Z,78.75
2022-09-22T09:15:28.637Z,84.38
2022-09-22T09:16:28.708Z,84.38
2022-09-22T09:17:28.625Z,90.00
2022-09-22T09:18:28.641Z,90.00
2022-09-22T09:19:33.617Z,90.00
2022-09-22T09:20:28.658Z,90.00
2022-09-22T09:21:28.624Z,101.25
2022-09-22T09:22:28.570Z,106.88
2022-09-22T09:25:22.126Z,112.50
2022-09-22T09:25:29.525Z,118.12
2022-09-22T09:26:28.531Z,123.75
2022-09-22T09:27:28.530Z,151.88
2022-09-22T09:28:28.532Z,168.75
2022-09-22T09:29:28.505Z,168.75
2022-09-22T09:30:33.522Z,146.25
2022-09-22T09:31:28.484Z,157.50
2022-09-22T09:32:28.453Z,208.12
2022-09-22T09:33:28.431Z,196.88
2022-09-22T09:34:28.857Z,112.50
2022-09-22T09:35:28.414Z,95.62
2022-09-22T09:36:28.398Z,101.25
2022-09-22T09:37:28.393Z,101.25
2022-09-22T09:38:28.385Z,106.88
2022-09-22T09:39:28.365Z,135.00
2022-09-22T09:40:28.479Z,112.50
2022-09-22T09:41:33.395Z,90.00
2022-09-22T09:42:28.429Z,84.38
2022-09-22T09:43:28.325Z,84.38
2022-09-22T09:44:28.318Z,95.62
2022-09-22T09:45:28.357Z,129.38
2022-09-22T09:46:28.328Z,95.62
2022-09-22T09:47:28.283Z,123.75
2022-09-22T09:48:28.293Z,95.62
2022-09-22T09:49:28.249Z,112.50
2022-09-22T09:50:28.420Z,95.62
2022-09-22T09:51:28.373Z,90.00
2022-09-22T09:52:33.253Z,112.50
2022-09-22T09:53:28.220Z,129.38
2022-09-22T09:54:28.202Z,95.62
2022-09-22T09:55:28.214Z,106.88
2022-09-22T09:56:28.197Z,90.00
2022-09-22T09:57:28.338Z,84.38
2022-09-22T09:58:28.178Z,84.38
2022-09-22T09:59:28.188Z,84.38
2022-09-22T10:00:28.144Z,84.38
2022-09-22T10:01:28.175Z,84.38
2022-09-22T10:02:28.107Z,84.38
2022-09-22T10:03:33.152Z,84.38
2022-09-22T10:04:28.089Z,95.62
2022-09-22T10:05:28.078Z,90.00
2022-09-22T10:06:28.098Z,95.62
2022-09-22T10:07:28.115Z,112.50
2022-09-22T10:08:28.049Z,95.62
2022-09-22T10:09:28.031Z,90.00
2022-09-22T10:10:28.028Z,84.38
2022-09-22T10:11:28.016Z,101.25
2022-09-22T10:12:27.989Z,95.62
2022-09-22T10:13:27.981Z,84.38
2022-09-22T10:14:32.991Z,84.38
2022-09-22T10:15:27.958Z,84.38
2022-09-22T10:16:27.958Z,84.38
2022-09-22T10:17:27.947Z,84.38
2022-09-22T10:18:27.920Z,84.38
2022-09-22T10:19:27.907Z,90.00
2022-09-22T10:20:27.895Z,90.00
2022-09-22T10:21:27.910Z,84.38
2022-09-22T10:22:27.896Z,84.38
2022-09-22T10:23:27.879Z,90.00
2022-09-22T10:24:27.862Z,84.38
2022-09-22T10:25:32.863Z,90.00
2022-09-22T10:26:27.845Z,90.00
2022-09-22T10:27:27.850Z,112.50
2022-09-22T10:28:27.804Z,219.38
2022-09-22T10:29:27.802Z,95.62
2022-09-22T10:30:27.783Z,101.25
2022-09-22T10:31:27.889Z,410.62
2022-09-22T10:32:27.780Z,461.25
2022-09-22T10:33:27.747Z,208.12
2022-09-22T10:34:27.737Z,174.38
2022-09-22T10:35:27.741Z,500.62
2022-09-22T10:36:32.764Z,2019.38
2022-09-22T10:37:27.722Z,1423.12
2022-09-22T10:38:27.780Z,1186.88
2022-09-22T10:39:27.683Z,1282.50
2022-09-22T10:40:27.736Z,405.00
2022-09-22T10:41:27.736Z,320.62
2022-09-22T10:42:27.645Z,303.75
2022-09-22T10:43:27.646Z,376.88
2022-09-22T10:44:38.646Z,168.75
2022-09-22T10:45:28.911Z,303.75
2022-09-22T10:46:27.700Z,360.00
2022-09-22T10:47:32.615Z,579.38
2022-09-22T10:48:27.578Z,123.75
2022-09-22T10:49:27.579Z,118.12
2022-09-22T10:50:27.569Z,101.25
2022-09-22T10:51:27.625Z,106.88
2022-09-22T10:52:27.534Z,135.00
2022-09-22T10:53:27.526Z,157.50
2022-09-22T10:54:27.530Z,101.25
2022-09-22T10:55:27.520Z,112.50
2022-09-22T10:56:27.523Z,106.88
2022-09-22T10:57:27.488Z,95.62
2022-09-22T10:58:32.492Z,129.38
2022-09-22T10:59:27.464Z,106.88
2022-09-22T11:00:27.444Z,101.25
2022-09-22T11:01:27.529Z,101.25
2022-09-22T11:02:27.461Z,95.62
2022-09-22T11:03:27.420Z,95.62
2022-09-22T11:04:27.472Z,146.25
2022-09-22T11:05:27.389Z,163.12
2022-09-22T11:06:27.405Z,393.75
2022-09-22T11:07:27.366Z,585.00
2022-09-22T11:08:27.356Z,225.00
2022-09-22T11:09:32.502Z,95.62
2022-09-22T11:10:27.329Z,309.38
2022-09-22T11:11:27.339Z,393.75
2022-09-22T11:12:27.329Z,151.88
2022-09-22T11:13:27.302Z,106.88
2022-09-22T11:14:27.292Z,135.00
2022-09-22T11:15:27.357Z,112.50
2022-09-22T11:16:27.300Z,191.25
2022-09-22T11:17:27.250Z,106.88
2022-09-22T11:18:27.268Z,106.88
2022-09-22T11:19:27.256Z,112.50
2022-09-22T11:20:32.275Z,106.88
2022-09-22T11:21:27.234Z,315.00
2022-09-22T11:22:27.194Z,286.88
2022-09-22T11:23:27.181Z,691.88
2022-09-22T11:24:27.190Z,551.25
2022-09-22T11:25:27.190Z,191.25
2022-09-22T11:26:27.178Z,135.00
2022-09-22T11:27:27.135Z,140.62
2022-09-22T11:28:27.160Z,832.50
2022-09-22T11:29:27.119Z,928.12
2022-09-22T11:30:27.107Z,1023.75
2022-09-22T11:31:32.192Z,708.75
2022-09-22T11:32:27.102Z,202.50
2022-09-22T11:33:27.090Z,95.62
2022-09-22T11:34:27.072Z,95.62
2022-09-22T11:35:27.053Z,118.12
2022-09-22T11:36:27.053Z,112.50
2022-09-22T11:37:27.042Z,191.25
2022-09-22T11:38:27.012Z,118.12
2022-09-22T11:39:27.007Z,112.50
2022-09-22T11:40:27.044Z,264.38
2022-09-22T11:41:26.998Z,343.12
2022-09-22T11:42:32.010Z,230.62
2022-09-22T11:43:26.965Z,776.25
2022-09-22T11:44:26.952Z,219.38
2022-09-22T11:45:26.937Z,393.75
2022-09-22T11:46:26.985Z,270.00
2022-09-22T11:47:26.994Z,90.00
2022-09-22T11:48:26.900Z,90.00
2022-09-22T11:49:26.892Z,90.00
2022-09-22T11:50:27.025Z,90.00
2022-09-22T11:51:26.928Z,90.00
2022-09-22T11:52:26.875Z,95.62
2022-09-22T11:53:31.876Z,168.75
2022-09-22T11:54:26.833Z,230.62
2022-09-22T11:55:26.845Z,180.00
2022-09-22T11:56:26.817Z,202.50
2022-09-22T11:57:26.843Z,101.25
2022-09-22T11:58:26.788Z,95.62
2022-09-22T11:59:26.815Z,95.62
2022-09-22T12:00:26.768Z,129.38
2022-09-22T12:01:26.765Z,95.62
2022-09-22T12:02:26.954Z,95.62
2022-09-22T12:03:26.930Z,151.88
2022-09-22T12:04:31.754Z,140.62
2022-09-22T12:05:26.712Z,106.88
2022-09-22T12:06:26.697Z,123.75
2022-09-22T12:07:26.701Z,112.50
2022-09-22T12:08:26.673Z,129.38
2022-09-22T12:09:26.660Z,112.50
2022-09-22T12:10:26.655Z,253.12
2022-09-22T12:11:26.661Z,123.75
2022-09-22T12:12:26.628Z,118.12
2022-09-22T12:13:26.633Z,101.25
2022-09-22T12:14:26.604Z,191.25
2022-09-22T12:15:31.615Z,433.12
2022-09-22T12:16:26.599Z,641.25
2022-09-22T12:17:26.575Z,815.62
2022-09-22T12:18:26.568Z,258.75
2022-09-22T12:19:26.548Z,163.12
2022-09-22T12:20:26.548Z,225.00
2022-09-22T12:21:26.545Z,691.88
2022-09-22T12:22:26.528Z,725.62
2022-09-22T12:23:26.525Z,388.12
2022-09-22T12:24:26.494Z,123.75
2022-09-22T12:25:47.669Z,258.75
2022-09-22T12:26:32.525Z,140.62
2022-09-22T12:27:26.459Z,129.38
2022-09-22T12:28:26.465Z,151.88
2022-09-22T12:29:26.457Z,191.25
2022-09-22T12:30:26.468Z,298.12
2022-09-22T12:31:26.443Z,618.75
2022-09-22T12:32:26.417Z,2244.38
2022-09-22T12:33:26.393Z,2328.75
2022-09-22T12:34:26.440Z,2289.38
2022-09-22T12:35:28.789Z,2311.88
2022-09-22T12:36:26.379Z,2362.50
2022-09-22T12:37:31.369Z,2497.50
2022-09-22T12:38:26.422Z,2385.00
2022-09-22T12:39:26.341Z,1884.38
2022-09-22T12:40:26.477Z,1524.38
2022-09-22T12:41:26.314Z,1035.00
2022-09-22T12:42:26.296Z,405.00
2022-09-22T12:43:26.284Z,163.12
2022-09-22T12:44:26.290Z,157.50
2022-09-22T12:45:26.289Z,151.88
2022-09-22T12:46:26.253Z,146.25
2022-09-22T12:47:26.240Z,140.62
2022-09-22T12:48:31.266Z,129.38
2022-09-22T12:49:26.248Z,135.00
2022-09-22T12:50:26.205Z,157.50
2022-09-22T12:51:26.238Z,180.00
2022-09-22T12:52:26.188Z,202.50
2022-09-22T12:53:26.228Z,185.62
2022-09-22T12:54:26.167Z,163.12
2022-09-22T12:55:26.141Z,180.00
2022-09-22T12:56:26.168Z,168.75
2022-09-22T12:57:26.127Z,163.12
2022-09-22T12:58:26.179Z,140.62
2022-09-22T12:59:31.134Z,123.75
2022-09-22T13:00:27.889Z,118.12
2022-09-22T13:01:26.220Z,123.75
2022-09-22T13:02:26.089Z,118.12
2022-09-22T13:03:26.062Z,118.12
2022-09-22T13:04:26.046Z,101.25
2022-09-22T13:05:26.044Z,90.00
2022-09-22T13:06:26.017Z,78.75
2022-09-22T13:07:26.050Z,78.75
2022-09-22T13:08:25.996Z,73.12
2022-09-22T13:09:25.991Z,73.12
2022-09-22T13:10:30.997Z,73.12
2022-09-22T13:11:25.983Z,73.12
2022-09-22T13:12:25.969Z,73.12
2022-09-22T13:13:25.938Z,73.12
2022-09-22T13:14:26.144Z,73.12
2022-09-22T13:15:25.917Z,73.12
2022-09-22T13:16:25.956Z,73.12
2022-09-22T13:17:25.932Z,73.12
2022-09-22T13:18:25.902Z,73.12
2022-09-22T13:19:25.873Z,73.12
2022-09-22T13:20:25.935Z,73.12
2022-09-22T13:21:30.880Z,73.12
2022-09-22T13:22:25.862Z,73.12
2022-09-22T13:23:25.837Z,73.12
2022-09-22T13:24:27.518Z,73.12
2022-09-22T13:25:25.820Z,73.12
2022-09-22T13:26:25.810Z,73.12
2022-09-22T13:27:25.813Z,73.12
2022-09-22T13:28:25.771Z,73.12
2022-09-22T13:29:26.087Z,67.50
2022-09-22T13:30:25.853Z,73.12
2022-09-22T13:31:25.755Z,73.12
2022-09-22T13:32:30.763Z,73.12
2022-09-22T13:33:25.729Z,67.50
2022-09-22T13:34:25.729Z,73.12
2022-09-22T13:35:25.751Z,73.12
2022-09-22T13:36:25.737Z,73.12
2022-09-22T13:37:25.694Z,73.12
2022-09-22T13:38:25.708Z,73.12
2022-09-22T13:39:25.711Z,73.12
2022-09-22T13:40:25.684Z,73.12
2022-09-22T13:41:25.651Z,73.12
2022-09-22T13:42:25.714Z,73.12
2022-09-22T13:43:30.682Z,73.12
2022-09-22T13:44:25.642Z,73.12
2022-09-22T13:45:25.595Z,73.12
2022-09-22T13:46:25.605Z,73.12
2022-09-22T13:47:25.578Z,73.12
2022-09-22T13:48:25.594Z,73.12
2022-09-22T13:49:25.536Z,73.12
2022-09-22T13:50:25.563Z,73.12
2022-09-22T13:51:25.741Z,73.12
2022-09-22T13:52:25.697Z,73.12
2022-09-22T13:53:25.709Z,78.75
2022-09-22T13:54:31.171Z,73.12
2022-09-22T13:55:25.469Z,73.12
2022-09-22T13:56:25.455Z,73.12
2022-09-22T13:57:25.726Z,73.12
2022-09-22T13:58:25.432Z,73.12
2022-09-22T13:59:25.420Z,73.12
2022-09-22T14:00:25.408Z,73.12
2022-09-22T14:01:25.537Z,73.12
2022-09-22T14:02:31.168Z,73.12
2022-09-22T14:03:26.370Z,73.12
2022-09-22T14:04:25.396Z,73.12
2022-09-22T14:05:30.433Z,73.12
2022-09-22T14:06:25.362Z,73.12
2022-09-22T14:07:25.534Z,73.12
2022-09-22T14:08:25.331Z,73.12
2022-09-22T14:09:25.356Z,73.12
2022-09-22T14:10:25.337Z,73.12
2022-09-22T14:11:25.295Z,73.12
2022-09-22T14:12:25.314Z,73.12
2022-09-22T14:13:25.284Z,73.12
2022-09-22T14:14:25.261Z,73.12
2022-09-22T14:15:25.307Z,73.12
2022-09-22T14:16:30.343Z,73.12
2022-09-22T14:17:25.242Z,73.12
2022-09-22T14:18:25.925Z,73.12
2022-09-22T14:19:25.193Z,73.12
2022-09-22T14:20:25.206Z,73.12
2022-09-22T14:21:25.209Z,73.12
2022-09-22T14:22:25.188Z,73.12
2022-09-22T14:23:25.159Z,73.12
2022-09-22T14:24:25.221Z,73.12
2022-09-22T14:25:25.123Z,73.12
2022-09-22T14:26:25.111Z,73.12
2022-09-22T14:27:30.165Z,73.12
2022-09-22T14:28:25.100Z,73.12
2022-09-22T14:29:25.075Z,73.12
2022-09-22T14:30:25.082Z,73.12
2022-09-22T14:31:25.144Z,73.12
2022-09-22T14:32:25.050Z,67.50
2022-09-22T14:33:25.049Z,67.50
2022-09-22T14:34:25.026Z,67.50
2022-09-22T14:35:25.028Z,67.50
2022-09-22T14:36:25.024Z,67.50
2022-09-22T14:37:24.986Z,67.50
2022-09-22T14:38:30.022Z,67.50
2022-09-22T14:39:30.607Z,67.50
2022-09-22T14:40:26.004Z,67.50
2022-09-22T14:41:24.940Z,67.50
2022-09-22T14:42:24.953Z,67.50
2022-09-22T14:43:24.954Z,67.50
2022-09-22T14:44:24.907Z,67.50
2022-09-22T14:45:25.089Z,67.50
2022-09-22T14:46:25.021Z,67.50
2022-09-22T14:47:25.129Z,67.50
2022-09-22T14:48:24.877Z,67.50
2022-09-22T14:49:29.899Z,67.50
2022-09-22T14:50:24.859Z,67.50
2022-09-22T14:51:24.831Z,67.50
2022-09-22T14:52:25.022Z,67.50
2022-09-22T14:53:24.830Z,67.50
2022-09-22T14:54:24.849Z,61.88
2022-09-22T14:55:24.778Z,61.88
2022-09-22T14:56:24.811Z,61.88
2022-09-22T14:57:24.757Z,61.88
2022-09-22T14:58:24.758Z,61.88
2022-09-22T14:59:24.861Z,61.88
2022-09-22T15:00:29.742Z,61.88
2022-09-22T15:01:24.750Z,61.88
2022-09-22T15:02:24.765Z,61.88
2022-09-22T15:03:24.715Z,61.88
2022-09-22T15:04:24.686Z,61.88
2022-09-22T15:05:29.367Z,61.88
2022-09-22T15:06:25.653Z,61.88
2022-09-22T15:07:24.449Z,61.88
2022-09-22T15:08:24.520Z,61.88
2022-09-22T15:09:24.422Z,61.88
2022-09-22T15:10:24.416Z,56.25
2022-09-22T15:11:29.457Z,56.25
2022-09-22T15:12:24.387Z,56.25
2022-09-22T15:13:25.081Z,56.25
2022-09-22T15:14:24.390Z,56.25
2022-09-22T15:15:24.350Z,56.25
2022-09-22T15:16:24.418Z,56.25
2022-09-22T15:17:24.377Z,56.25
2022-09-22T15:18:27.293Z,56.25
2022-09-22T15:19:26.685Z,56.25
2022-09-22T15:20:24.363Z,56.25
2022-09-22T15:21:24.290Z,56.25
2022-09-22T15:22:29.300Z,56.25
2022-09-22T15:23:24.274Z,56.25
2022-09-22T15:24:26.116Z,56.25
2022-09-22T15:25:24.279Z,56.25
2022-09-22T15:26:25.417Z,56.25
2022-09-22T15:27:24.222Z,56.25
2022-09-22T15:28:24.260Z,50.62
2022-09-22T15:29:24.262Z,50.62
2022-09-22T15:30:24.187Z,50.62
2022-09-22T15:31:24.333Z,50.62
2022-09-22T15:32:24.166Z,50.62
2022-09-22T15:33:29.485Z,50.62
2022-09-22T15:34:24.307Z,50.62
2022-09-22T15:35:24.154Z,50.62
2022-09-22T15:36:24.160Z,50.62
2022-09-22T15:37:24.111Z,50.62
2022-09-22T15:38:24.103Z,50.62
2022-09-22T15:39:24.173Z,50.62
2022-09-22T15:40:24.136Z,50.62
2022-09-22T15:41:24.076Z,50.62
2022-09-22T15:42:24.244Z,50.62
2022-09-22T15:43:24.244Z,50.62
2022-09-22T15:44:29.260Z,50.62
2022-09-22T15:45:24.217Z,50.62
2022-09-22T15:46:24.214Z,50.62
2022-09-22T15:47:24.194Z,50.62
2022-09-22T15:48:24.182Z,50.62
2022-09-22T15:49:24.182Z,50.62
2022-09-22T15:50:24.164Z,50.62
2022-09-22T15:51:24.159Z,50.62
2022-09-22T15:52:24.139Z,50.62
2022-09-22T15:53:24.130Z,50.62
2022-09-22T15:54:24.122Z,50.62
2022-09-22T15:55:29.162Z,50.62
2022-09-22T15:56:24.099Z,50.62
2022-09-22T15:57:24.086Z,50.62
2022-09-22T15:58:24.072Z,50.62
2022-09-22T15:59:24.078Z,45.00
2022-09-22T16:00:24.088Z,45.00
2022-09-22T16:01:24.063Z,45.00
2022-09-22T16:02:24.026Z,45.00
2022-09-22T16:03:24.158Z,45.00
2022-09-22T16:04:24.007Z,45.00
2022-09-22T16:05:24.028Z,45.00
2022-09-22T16:06:29.003Z,45.00
2022-09-22T16:07:23.986Z,45.00
2022-09-22T16:08:23.967Z,45.00
2022-09-22T16:09:23.989Z,45.00
2022-09-22T16:10:23.956Z,39.38
2022-09-22T16:11:23.961Z,39.38
2022-09-22T16:12:23.915Z,39.38
2022-09-22T16:13:23.901Z,39.38
2022-09-22T16:14:23.894Z,39.38
2022-09-22T16:15:24.020Z,39.38
2022-09-22T16:16:23.940Z,39.38
2022-09-22T16:17:28.879Z,39.38
2022-09-22T16:18:23.854Z,39.38
2022-09-22T16:19:23.840Z,39.38
2022-09-22T16:20:23.835Z,39.38
2022-09-22T16:21:23.815Z,39.38
2022-09-22T16:22:23.806Z,33.75
2022-09-22T16:23:23.788Z,33.75
2022-09-22T16:24:23.775Z,33.75
2022-09-22T16:25:23.783Z,33.75
2022-09-22T16:26:23.754Z,33.75
2022-09-22T16:27:23.768Z,33.75
2022-09-22T16:28:28.754Z,33.75
2022-09-22T16:29:23.722Z,33.75
2022-09-22T16:30:25.937Z,28.12
2022-09-22T16:31:23.779Z,28.12
2022-09-22T16:32:23.687Z,28.12
2022-09-22T16:33:23.675Z,28.12
2022-09-22T16:34:23.665Z,28.12
2022-09-22T16:35:23.683Z,28.12
2022-09-22T16:36:23.656Z,28.12
2022-09-22T16:37:23.631Z,28.12
2022-09-22T16:38:23.628Z,22.50
2022-09-22T16:39:28.708Z,22.50
2022-09-22T16:40:23.747Z,22.50
2022-09-22T16:41:23.593Z,22.50
2022-09-22T16:42:24.046Z,22.50
2022-09-22T16:43:23.593Z,22.50
2022-09-22T16:44:23.564Z,22.50
2022-09-22T16:45:23.570Z,22.50
2022-09-22T16:46:23.629Z,22.50
2022-09-22T16:47:23.556Z,22.50
2022-09-22T16:48:23.577Z,22.50
2022-09-22T16:49:23.497Z,22.50